createdAt,value
2019-05-21T00:02:00.858Z,10.63
2019-05-21T00:04:29.624Z,14.80
2019-05-21T00:06:58.420Z,9.38
2019-05-21T00:09:27.228Z,7.87
2019-05-21T00:11:56.110Z,10.43
2019-05-21T00:14:24.940Z,7.00
2019-05-21T00:16:53.778Z,11.10
2019-05-21T00:19:22.546Z,9.68
2019-05-21T00:21:51.384Z,9.00
2019-05-21T00:24:20.233Z,11.55
2019-05-21T00:26:49.044Z,9.10
2019-05-21T00:29:54.611Z,10.28
2019-05-21T00:32:59.867Z,9.78
2019-05-21T00:36:04.994Z,6.47
2019-05-21T00:39:10.073Z,8.58
2019-05-21T00:42:02.887Z,9.63
2019-05-21T00:44:40.449Z,9.13
2019-05-21T00:47:11.155Z,11.00
2019-05-21T00:49:40.074Z,9.13
2019-05-21T00:52:09.573Z,10.65
2019-05-21T00:54:38.482Z,8.65
2019-05-21T00:57:07.335Z,10.58
2019-05-21T00:59:36.142Z,10.65
2019-05-21T01:02:04.991Z,9.80
2019-05-21T01:04:33.894Z,6.83
2019-05-21T01:07:02.868Z,8.15
2019-05-21T01:09:31.622Z,14.50
2019-05-21T01:12:00.491Z,9.08
2019-05-21T01:14:29.350Z,6.65
2019-05-21T01:16:58.179Z,8.33
2019-05-21T01:19:27.011Z,16.62
2019-05-21T01:21:55.840Z,12.53
2019-05-21T01:24:24.676Z,11.60
2019-05-21T01:26:53.534Z,9.55
2019-05-21T01:29:22.372Z,7.95
2019-05-21T01:31:51.245Z,9.23
2019-05-21T01:34:20.185Z,7.92
2019-05-21T01:36:49.036Z,12.75
2019-05-21T01:39:17.801Z,7.95
2019-05-21T01:41:46.649Z,9.98
2019-05-21T01:44:15.515Z,10.63
2019-05-21T01:46:44.353Z,9.65
2019-05-21T01:49:13.153Z,14.47
2019-05-21T01:51:41.963Z,8.75
2019-05-21T01:54:10.793Z,12.65
2019-05-21T01:56:39.613Z,7.37
2019-05-21T01:59:08.549Z,15.55
2019-05-21T02:01:37.370Z,12.50
2019-05-21T02:04:06.237Z,16.00
2019-05-21T02:06:35.049Z,12.33
2019-05-21T02:09:04.997Z,9.48
2019-05-21T02:11:33.829Z,8.88
2019-05-21T02:14:02.645Z,8.03
2019-05-21T02:16:32.681Z,11.43
2019-05-21T02:19:01.532Z,10.38
2019-05-21T02:21:30.294Z,7.58
2019-05-21T02:23:59.113Z,14.70
2019-05-21T02:26:27.942Z,10.32
2019-05-21T02:28:56.783Z,8.23
2019-05-21T02:31:25.652Z,10.23
2019-05-21T02:33:54.447Z,9.65
2019-05-21T02:36:23.643Z,9.68
2019-05-21T02:38:52.362Z,12.15
2019-05-21T02:41:21.146Z,10.00
2019-05-21T02:43:49.918Z,17.70
2019-05-21T02:46:18.753Z,12.90
2019-05-21T02:48:47.585Z,7.78
2019-05-21T02:51:16.365Z,13.15
2019-05-21T02:53:45.238Z,7.60
2019-05-21T02:56:14.037Z,14.00
2019-05-21T02:58:42.875Z,10.18
2019-05-21T03:01:16.910Z,12.20
2019-05-21T03:03:43.767Z,10.98
2019-05-21T03:06:14.788Z,11.33
2019-05-21T03:08:43.219Z,9.73
2019-05-21T03:11:12.066Z,14.30
2019-05-21T03:13:40.909Z,13.65
2019-05-21T03:16:09.794Z,9.48
2019-05-21T03:18:38.634Z,18.65
2019-05-21T03:21:07.570Z,14.63
2019-05-21T03:23:36.373Z,15.85
2019-05-21T03:26:05.203Z,10.60
2019-05-21T03:28:34.097Z,12.07
2019-05-21T03:31:02.923Z,14.05
2019-05-21T03:33:31.775Z,12.80
2019-05-21T03:36:00.597Z,8.70
2019-05-21T03:38:29.420Z,11.95
2019-05-21T03:40:58.243Z,9.90
2019-05-21T03:43:27.087Z,10.98
2019-05-21T03:45:55.919Z,10.68
2019-05-21T03:48:24.687Z,10.63
2019-05-21T03:50:53.553Z,9.55
2019-05-21T03:53:22.376Z,7.00
2019-05-21T03:55:51.232Z,9.90
2019-05-21T03:58:20.842Z,11.80
2019-05-21T04:00:49.786Z,14.58
2019-05-21T04:03:18.927Z,15.05
2019-05-21T04:05:49.153Z,13.50
2019-05-21T04:08:18.186Z,11.15
2019-05-21T04:10:47.060Z,8.05
2019-05-21T04:13:15.822Z,13.55
2019-05-21T04:16:02.688Z,13.38
2019-05-21T04:18:35.821Z,10.50
2019-05-21T04:21:04.636Z,14.65
2019-05-21T04:23:33.579Z,7.45
2019-05-21T04:26:04.013Z,9.10
2019-05-21T04:28:33.853Z,8.53
2019-05-21T04:31:04.116Z,18.70
2019-05-21T04:33:32.818Z,10.80
2019-05-21T04:36:03.063Z,23.87
2019-05-21T04:38:31.843Z,10.50
2019-05-21T04:41:03.712Z,13.68
2019-05-21T04:43:32.718Z,9.33
2019-05-21T04:46:01.526Z,6.97
2019-05-21T04:48:33.397Z,13.45
2019-05-21T04:51:02.194Z,9.08
2019-05-21T04:53:31.017Z,20.40
2019-05-21T04:55:59.777Z,9.40
2019-05-21T04:58:28.613Z,14.80
2019-05-21T05:00:57.390Z,8.60
2019-05-21T05:03:26.250Z,12.28
2019-05-21T05:05:55.105Z,8.30
2019-05-21T05:08:23.975Z,10.00
2019-05-21T05:10:52.758Z,16.52
2019-05-21T05:13:21.597Z,12.40
2019-05-21T05:15:50.278Z,6.97
2019-05-21T05:18:19.108Z,16.87
2019-05-21T05:20:47.933Z,13.40
2019-05-21T05:23:16.812Z,10.40
2019-05-21T05:25:45.627Z,7.42
2019-05-21T05:28:14.463Z,12.07
2019-05-21T05:30:43.267Z,6.87
2019-05-21T05:33:13.251Z,11.65
2019-05-21T05:35:42.080Z,18.77
2019-05-21T05:38:10.889Z,10.93
2019-05-21T05:40:39.660Z,7.05
2019-05-21T05:43:08.516Z,8.03
2019-05-21T05:45:37.925Z,8.68
2019-05-21T05:48:06.840Z,10.32
2019-05-21T05:50:39.955Z,10.50
2019-05-21T05:53:08.785Z,6.03
2019-05-21T05:55:37.597Z,8.33
2019-05-21T05:58:06.435Z,8.18
2019-05-21T06:00:35.276Z,9.10
2019-05-21T06:03:04.169Z,9.63
2019-05-21T06:05:32.925Z,6.28
2019-05-21T06:08:02.218Z,7.55
2019-05-21T06:10:31.063Z,14.07
2019-05-21T06:12:59.915Z,13.38
2019-05-21T06:15:28.748Z,15.18
2019-05-21T06:17:57.581Z,9.20
2019-05-21T06:20:26.418Z,8.50
2019-05-21T06:22:55.263Z,6.17
2019-05-21T06:25:24.201Z,17.27
2019-05-21T06:27:53.052Z,12.53
2019-05-21T06:30:21.913Z,16.75
2019-05-21T06:32:51.102Z,14.93
2019-05-21T06:35:19.977Z,10.60
2019-05-21T06:37:50.582Z,8.83
2019-05-21T06:40:20.139Z,8.90
2019-05-21T06:42:49.105Z,10.95
2019-05-21T06:45:19.178Z,10.75
2019-05-21T06:47:48.016Z,9.68
2019-05-21T06:50:16.922Z,12.40
2019-05-21T06:52:45.804Z,12.00
2019-05-21T06:55:15.353Z,14.53
2019-05-21T06:57:53.056Z,10.20
2019-05-21T07:00:22.185Z,9.85
2019-05-21T07:02:50.959Z,7.87
2019-05-21T07:05:19.793Z,8.35
2019-05-21T07:07:48.640Z,8.63
2019-05-21T07:10:17.906Z,9.20
2019-05-21T07:12:46.933Z,7.45
2019-05-21T07:15:16.177Z,11.30
2019-05-21T07:17:45.563Z,11.93
2019-05-21T07:20:14.628Z,8.70
2019-05-21T07:22:43.521Z,3.95
2019-05-21T07:25:12.847Z,9.15
2019-05-21T07:27:41.683Z,5.15
2019-05-21T07:30:13.091Z,4.40
2019-05-21T07:32:41.937Z,6.67
2019-05-21T07:35:10.860Z,8.05
2019-05-21T07:37:39.743Z,7.35
2019-05-21T07:40:08.981Z,7.50
2019-05-21T07:42:37.836Z,10.18
2019-05-21T07:45:07.965Z,11.88
2019-05-21T07:47:36.782Z,9.20
2019-05-21T07:50:07.164Z,11.53
2019-05-21T07:52:35.997Z,13.70
2019-05-21T07:55:05.435Z,9.80
2019-05-21T07:57:34.314Z,6.17
2019-05-21T08:00:04.162Z,11.53
2019-05-21T08:02:32.979Z,6.83
2019-05-21T08:05:02.379Z,8.13
2019-05-21T08:07:31.510Z,6.75
2019-05-21T08:10:00.357Z,11.78
2019-05-21T08:12:38.964Z,10.60
2019-05-21T08:14:59.699Z,6.58
2019-05-21T08:17:28.600Z,7.90
2019-05-21T08:20:08.533Z,9.70
2019-05-21T08:22:27.943Z,3.58
2019-05-21T08:24:56.802Z,5.95
2019-05-21T08:27:25.630Z,7.33
2019-05-21T08:29:54.470Z,6.33
2019-05-21T08:32:23.333Z,7.25
2019-05-21T08:34:52.157Z,8.23
2019-05-21T08:37:20.991Z,8.95
2019-05-21T08:39:49.829Z,5.08
2019-05-21T08:42:18.663Z,7.60
2019-05-21T08:44:48.051Z,4.62
2019-05-21T08:47:16.900Z,5.92
2019-05-21T08:49:45.856Z,7.20
2019-05-21T08:52:14.697Z,8.73
2019-05-21T08:54:50.315Z,10.95
2019-05-21T08:57:19.213Z,7.65
2019-05-21T08:59:48.671Z,7.65
2019-05-21T09:02:17.776Z,5.97
2019-05-21T09:04:46.998Z,5.42
2019-05-21T09:07:15.940Z,8.03
2019-05-21T09:09:50.597Z,4.92
2019-05-21T09:12:15.687Z,5.28
2019-05-21T09:14:44.676Z,5.83
2019-05-21T09:17:13.429Z,7.85
2019-05-21T09:19:42.271Z,7.03
2019-05-21T09:22:11.160Z,6.80
2019-05-21T09:24:39.991Z,6.08
2019-05-21T09:27:08.743Z,4.95
2019-05-21T09:29:37.609Z,8.75
2019-05-21T09:32:06.406Z,6.78
2019-05-21T09:34:48.256Z,8.18
2019-05-21T09:37:18.400Z,7.50
2019-05-21T09:39:36.343Z,4.45
2019-05-21T09:42:05.231Z,10.25
2019-05-21T09:44:34.156Z,6.28
2019-05-21T09:47:10.309Z,10.63
2019-05-21T09:49:39.141Z,6.20
2019-05-21T09:52:07.997Z,10.15
2019-05-21T09:54:36.773Z,8.93
2019-05-21T09:57:07.424Z,5.83
2019-05-21T09:59:37.828Z,5.17
2019-05-21T10:02:11.223Z,10.30
2019-05-21T10:04:40.095Z,6.83
2019-05-21T10:07:08.980Z,10.85
2019-05-21T10:09:38.067Z,7.95
2019-05-21T10:12:08.497Z,3.98
2019-05-21T10:14:40.077Z,11.45
2019-05-21T10:17:08.889Z,10.68
2019-05-21T10:19:37.721Z,5.90
2019-05-21T10:22:06.708Z,5.33
2019-05-21T10:24:35.519Z,5.83
2019-05-21T10:27:04.555Z,5.47
2019-05-21T10:29:33.397Z,12.37
2019-05-21T10:32:02.244Z,6.25
2019-05-21T10:34:31.010Z,3.80
2019-05-21T10:37:01.267Z,6.53
2019-05-21T10:39:30.127Z,6.58
2019-05-21T10:41:58.947Z,7.47
2019-05-21T10:44:27.860Z,5.97
2019-05-21T10:46:56.887Z,9.23
2019-05-21T10:49:27.353Z,8.70
2019-05-21T10:51:56.219Z,6.03
2019-05-21T10:54:25.005Z,7.00
2019-05-21T10:56:53.932Z,5.08
2019-05-21T10:59:22.774Z,5.67
2019-05-21T11:01:53.194Z,19.75
2019-05-21T11:04:29.548Z,5.92
2019-05-21T11:06:58.597Z,5.53
2019-05-21T11:09:27.442Z,15.70
2019-05-21T11:11:56.258Z,12.10
2019-05-21T11:14:25.099Z,5.85
2019-05-21T11:16:53.945Z,14.55
2019-05-21T11:19:22.814Z,9.95
2019-05-21T11:21:54.590Z,5.87
2019-05-21T11:24:23.408Z,5.65
2019-05-21T11:26:52.948Z,7.67
2019-05-21T11:29:24.073Z,9.80
2019-05-21T11:31:57.123Z,7.47
2019-05-21T11:34:23.533Z,3.45
2019-05-21T11:36:52.413Z,11.08
2019-05-21T11:39:21.249Z,14.87
2019-05-21T11:41:51.694Z,6.50
2019-05-21T11:44:21.223Z,7.25
2019-05-21T11:46:51.103Z,8.75
2019-05-21T11:49:19.968Z,7.83
2019-05-21T11:51:48.959Z,10.35
2019-05-21T11:54:18.229Z,5.08
2019-05-21T11:56:47.166Z,5.90
2019-05-21T11:59:15.996Z,9.20
2019-05-21T12:01:44.923Z,11.03
2019-05-21T12:04:13.809Z,14.23
2019-05-21T12:06:42.580Z,5.75
2019-05-21T12:09:11.441Z,7.33
2019-05-21T12:11:40.283Z,7.62
2019-05-21T12:14:09.120Z,10.63
2019-05-21T12:16:37.921Z,6.35
2019-05-21T12:19:08.280Z,4.45
2019-05-21T12:21:37.263Z,5.35
2019-05-21T12:24:06.236Z,4.25
2019-05-21T12:26:35.445Z,6.22
2019-05-21T12:29:04.287Z,10.13
2019-05-21T12:31:33.128Z,13.03
2019-05-21T12:34:01.919Z,9.93
2019-05-21T12:36:30.733Z,4.95
2019-05-21T12:39:13.069Z,9.15
2019-05-21T12:41:30.006Z,10.20
2019-05-21T12:43:58.782Z,10.60
2019-05-21T12:46:27.654Z,16.00
2019-05-21T12:48:56.538Z,10.53
2019-05-21T12:51:33.944Z,5.55
2019-05-21T12:54:04.213Z,4.65
2019-05-21T12:56:33.008Z,11.55
2019-05-21T12:59:02.606Z,6.53
2019-05-21T13:01:31.562Z,12.03
2019-05-21T13:04:00.710Z,7.03
2019-05-21T13:06:29.617Z,9.48
2019-05-21T13:08:58.454Z,8.23
2019-05-21T13:11:28.700Z,7.85
2019-05-21T13:13:57.548Z,9.98
2019-05-21T13:16:26.413Z,10.28
2019-05-21T13:18:55.236Z,9.13
2019-05-21T13:21:24.101Z,7.95
2019-05-21T13:23:53.020Z,10.82
2019-05-21T13:26:21.942Z,11.53
2019-05-21T13:28:50.734Z,9.50
2019-05-21T13:31:19.598Z,11.03
2019-05-21T13:33:48.479Z,10.65
2019-05-21T13:36:17.349Z,10.85
2019-05-21T13:38:46.163Z,9.48
2019-05-21T13:41:15.001Z,5.35
2019-05-21T13:43:43.867Z,9.28
2019-05-21T13:46:12.724Z,3.27
2019-05-21T13:48:41.590Z,8.75
2019-05-21T13:51:10.388Z,8.75
2019-05-21T13:53:39.282Z,16.52
2019-05-21T13:56:08.035Z,6.62
2019-05-21T13:58:36.902Z,5.92
2019-05-21T14:01:06.353Z,15.28
2019-05-21T14:03:35.692Z,10.35
2019-05-21T14:06:04.819Z,7.65
2019-05-21T14:08:33.677Z,6.50
2019-05-21T14:11:02.588Z,4.92
2019-05-21T14:13:31.406Z,5.95
2019-05-21T14:16:00.252Z,6.37
2019-05-21T14:18:29.070Z,7.30
2019-05-21T14:20:57.949Z,5.47
2019-05-21T14:23:26.838Z,5.72
2019-05-21T14:25:55.675Z,4.08
2019-05-21T14:28:24.557Z,9.65
2019-05-21T14:30:53.399Z,5.87
2019-05-21T14:33:22.830Z,6.12
2019-05-21T14:35:51.674Z,8.95
2019-05-21T14:38:20.600Z,10.95
2019-05-21T14:40:49.362Z,4.33
2019-05-21T14:43:18.217Z,5.72
2019-05-21T14:45:46.979Z,7.20
2019-05-21T14:48:15.827Z,5.03
2019-05-21T14:50:44.656Z,9.78
2019-05-21T14:53:14.088Z,8.88
2019-05-21T14:55:42.929Z,13.55
2019-05-21T14:58:11.768Z,15.88
2019-05-21T15:00:40.828Z,18.10
2019-05-21T15:03:24.287Z,18.00
2019-05-21T15:05:40.470Z,17.12
2019-05-21T15:08:09.387Z,16.95
2019-05-21T15:10:47.788Z,14.13
2019-05-21T15:13:08.732Z,15.70
2019-05-21T15:15:37.563Z,20.08
2019-05-21T15:18:06.448Z,13.58
2019-05-21T15:20:36.872Z,14.85
2019-05-21T15:23:05.785Z,13.68
2019-05-21T15:25:37.283Z,19.10
2019-05-21T15:28:06.086Z,15.53
2019-05-21T15:30:35.010Z,19.30
2019-05-21T15:33:04.090Z,18.82
2019-05-21T15:35:34.383Z,20.20
2019-05-21T15:38:03.238Z,11.83
2019-05-21T15:40:32.097Z,15.53
2019-05-21T15:43:00.951Z,12.45
2019-05-21T15:45:29.798Z,17.52
2019-05-21T15:47:58.690Z,18.67
2019-05-21T15:50:27.559Z,17.75
2019-05-21T15:52:56.409Z,21.48
2019-05-21T15:55:25.259Z,16.07
2019-05-21T15:57:54.052Z,16.77
2019-05-21T16:00:24.201Z,19.70
2019-05-21T16:02:52.967Z,19.48
2019-05-21T16:05:21.814Z,15.40
2019-05-21T16:07:50.603Z,16.07
2019-05-21T16:10:19.470Z,13.62
2019-05-21T16:12:48.307Z,14.30
2019-05-21T16:15:17.263Z,13.60
2019-05-21T16:17:46.979Z,16.93
2019-05-21T16:20:17.508Z,19.32
2019-05-21T16:23:05.628Z,24.32
2019-05-21T16:25:34.470Z,15.80
2019-05-21T16:28:03.488Z,28.52
2019-05-21T16:30:32.264Z,24.87
2019-05-21T16:33:01.185Z,16.55
2019-05-21T16:35:30.520Z,14.10
2019-05-21T16:37:59.396Z,22.55
2019-05-21T16:40:29.764Z,22.90
2019-05-21T16:42:58.600Z,20.48
2019-05-21T16:45:27.458Z,22.62
2019-05-21T16:47:56.617Z,18.48
2019-05-21T16:50:25.445Z,22.82
2019-05-21T16:52:54.251Z,19.98
2019-05-21T16:55:23.188Z,16.15
2019-05-21T16:57:55.779Z,19.00
2019-05-21T17:00:23.098Z,20.75
2019-05-21T17:02:51.909Z,25.68
2019-05-21T17:05:20.927Z,20.88
2019-05-21T17:07:51.305Z,25.95
2019-05-21T17:10:20.121Z,24.80
2019-05-21T17:12:48.925Z,21.80
2019-05-21T17:15:17.972Z,13.15
2019-05-21T17:17:46.819Z,10.98
2019-05-21T17:20:16.493Z,12.10
2019-05-21T17:22:45.316Z,11.22
2019-05-21T17:25:14.645Z,9.43
2019-05-21T17:27:43.539Z,10.68
2019-05-21T17:30:12.739Z,11.03
2019-05-21T17:32:41.823Z,12.35
2019-05-21T17:35:11.122Z,8.00
2019-05-21T17:37:40.024Z,13.72
2019-05-21T17:40:09.466Z,8.58
2019-05-21T17:42:39.356Z,7.10
2019-05-21T17:45:11.198Z,13.48
2019-05-21T17:47:40.036Z,12.53
2019-05-21T17:50:09.429Z,12.37
2019-05-21T17:52:38.626Z,11.18
2019-05-21T17:55:07.654Z,10.20
2019-05-21T17:57:37.013Z,11.55
2019-05-21T18:00:07.985Z,14.78
2019-05-21T18:02:37.323Z,13.78
2019-05-21T18:05:08.756Z,11.70
2019-05-21T18:07:38.694Z,11.93
2019-05-21T18:10:08.857Z,6.30
2019-05-21T18:12:37.737Z,7.83
2019-05-21T18:15:10.420Z,19.50
2019-05-21T18:17:40.405Z,8.73
2019-05-21T18:20:10.605Z,9.95
2019-05-21T18:22:40.352Z,13.78
2019-05-21T18:25:09.513Z,8.88
2019-05-21T18:27:38.694Z,5.87
2019-05-21T18:30:09.061Z,10.03
2019-05-21T18:32:38.111Z,7.67
2019-05-21T18:35:08.578Z,6.85
2019-05-21T18:37:39.157Z,15.15
2019-05-21T18:40:09.053Z,9.78
2019-05-21T18:42:38.047Z,8.98
2019-05-21T18:45:09.001Z,10.55
2019-05-21T18:47:38.020Z,11.38
2019-05-21T18:50:08.404Z,7.15
2019-05-21T18:52:39.180Z,8.83
2019-05-21T18:55:09.557Z,8.65
2019-05-21T18:57:38.716Z,18.15
2019-05-21T19:00:08.469Z,14.98
2019-05-21T19:02:37.733Z,12.18
2019-05-21T19:05:08.389Z,14.65
2019-05-21T19:07:38.808Z,13.80
2019-05-21T19:10:09.510Z,8.83
2019-05-21T19:12:38.960Z,7.53
2019-05-21T19:15:09.311Z,10.32
2019-05-21T19:17:38.264Z,6.53
2019-05-21T19:20:08.069Z,9.95
2019-05-21T19:22:37.148Z,17.27
2019-05-21T19:25:07.825Z,11.12
2019-05-21T19:27:36.681Z,17.00
2019-05-21T19:30:09.507Z,9.28
2019-05-21T19:32:39.214Z,13.80
2019-05-21T19:35:13.578Z,11.12
2019-05-21T19:37:45.485Z,12.10
2019-05-21T19:40:14.702Z,11.43
2019-05-21T19:42:54.476Z,10.95
2019-05-21T19:45:15.989Z,14.55
2019-05-21T19:47:44.735Z,8.95
2019-05-21T19:50:13.773Z,15.18
2019-05-21T19:52:42.677Z,17.50
2019-05-21T19:55:12.038Z,23.55
2019-05-21T19:57:42.579Z,20.90
2019-05-21T20:00:12.927Z,12.50
2019-05-21T20:02:42.374Z,8.93
2019-05-21T20:05:12.338Z,10.23
2019-05-21T20:07:41.712Z,10.23
2019-05-21T20:10:11.458Z,10.65
2019-05-21T20:12:41.435Z,9.80
2019-05-21T20:15:10.959Z,10.18
2019-05-21T20:17:41.230Z,9.63
2019-05-21T20:20:11.952Z,9.60
2019-05-21T20:22:43.350Z,14.80
2019-05-21T20:25:13.656Z,11.30
2019-05-21T20:27:42.620Z,17.17
2019-05-21T20:30:14.409Z,14.68
2019-05-21T20:32:44.569Z,18.87
2019-05-21T20:35:15.620Z,16.27
2019-05-21T20:37:45.175Z,13.35
2019-05-21T20:40:15.162Z,16.95
2019-05-21T20:42:44.723Z,15.28
2019-05-21T20:45:15.863Z,11.95
2019-05-21T20:47:44.750Z,12.63
2019-05-21T20:50:15.417Z,15.80
2019-05-21T20:52:46.319Z,11.45
2019-05-21T20:55:17.375Z,11.28
2019-05-21T20:57:47.118Z,11.05
2019-05-21T21:00:23.113Z,12.00
2019-05-21T21:02:52.632Z,7.58
2019-05-21T21:05:21.876Z,10.58
2019-05-21T21:07:51.691Z,12.88
2019-05-21T21:10:21.009Z,9.95
2019-05-21T21:12:49.908Z,13.65
2019-05-21T21:15:20.877Z,9.65
2019-05-21T21:17:49.718Z,11.93
2019-05-21T21:20:18.688Z,10.30
2019-05-21T21:22:47.756Z,8.25
2019-05-21T21:25:21.317Z,8.13
2019-05-21T21:27:50.206Z,13.45
2019-05-21T21:30:19.430Z,12.95
2019-05-21T21:32:48.363Z,8.58
2019-05-21T21:35:20.302Z,15.28
2019-05-21T21:37:49.537Z,9.18
2019-05-21T21:40:19.011Z,11.08
2019-05-21T21:42:47.953Z,12.65
2019-05-21T21:45:17.208Z,13.78
2019-05-21T21:47:46.049Z,15.55
2019-05-21T21:50:15.513Z,18.67
2019-05-21T21:52:44.370Z,15.90
2019-05-21T21:55:13.489Z,15.40
2019-05-21T21:57:42.355Z,22.45
2019-05-21T22:00:33.655Z,13.53
2019-05-21T22:03:07.011Z,12.45
2019-05-21T22:05:35.841Z,13.03
2019-05-21T22:08:06.107Z,15.30
2019-05-21T22:10:37.107Z,17.73
2019-05-21T22:13:06.667Z,18.07
2019-05-21T22:15:36.029Z,17.92
2019-05-21T22:18:05.405Z,13.55
2019-05-21T22:20:34.928Z,13.03
2019-05-21T22:23:03.870Z,15.43
2019-05-21T22:25:32.725Z,16.10
2019-05-21T22:28:01.621Z,12.00
2019-05-21T22:30:31.589Z,13.00
2019-05-21T22:33:00.542Z,14.83
2019-05-21T22:35:29.382Z,11.57
2019-05-21T22:37:58.294Z,12.58
2019-05-21T22:40:27.262Z,12.68
2019-05-21T22:43:15.387Z,18.45
2019-05-21T22:45:44.417Z,17.35
2019-05-21T22:48:13.675Z,14.80
2019-05-21T22:50:42.592Z,15.18
2019-05-21T22:53:13.035Z,14.55
2019-05-21T22:55:42.031Z,16.75
2019-05-21T22:58:11.006Z,13.95
2019-05-21T23:00:40.605Z,18.98
2019-05-21T23:03:09.848Z,16.77
2019-05-21T23:05:38.720Z,15.72
2019-05-21T23:08:08.180Z,14.80
2019-05-21T23:10:37.649Z,16.07
2019-05-21T23:13:06.533Z,13.90
2019-05-21T23:15:35.409Z,17.17
2019-05-21T23:18:05.403Z,17.17
2019-05-21T23:20:36.544Z,17.70
2019-05-21T23:23:06.201Z,17.92
2019-05-21T23:25:36.680Z,21.85
2019-05-21T23:28:05.824Z,17.48
2019-05-21T23:30:34.752Z,16.87
2019-05-21T23:33:04.609Z,19.27
2019-05-21T23:35:34.982Z,21.93
2019-05-21T23:38:04.043Z,13.80
2019-05-21T23:40:33.026Z,18.55
2019-05-21T23:43:01.876Z,16.73
2019-05-21T23:45:31.143Z,14.75
2019-05-21T23:48:00.699Z,16.90
2019-05-21T23:50:30.360Z,23.70
2019-05-21T23:52:59.435Z,15.23
2019-05-21T23:55:28.268Z,17.65
2019-05-21T23:57:57.915Z,17.35
